sensor_id;sensor_type;location;lat;lon;timestamp;temperature;humidity
23371;DHT22;11858;51.056;3.712;2023-02-28T00:01:25;3.90;99.90
23371;DHT22;11858;51.056;3.712;2023-02-28T00:03:51;3.80;99.90
23371;DHT22;11858;51.056;3.712;2023-02-28T00:06:16;3.90;99.90
23371;DHT22;11858;51.056;3.712;2023-02-28T00:08:42;3.90;99.90
23371;DHT22;11858;51.056;3.712;2023-02-28T00:11:11;3.90;99.90
23371;DHT22;11858;51.056;3.712;2023-02-28T00:13:39;3.90;99.90
23371;DHT22;11858;51.056;3.712;2023-02-28T00:16:07;3.90;99.90
23371;DHT22;11858;51.056;3.712;2023-02-28T00:18:34;3.80;99.90
23371;DHT22;11858;51.056;3.712;2023-02-28T00:21:00;3.80;99.90
23371;DHT22;11858;51.056;3.712;2023-02-28T00:23:27;3.80;99.90
23371;DHT22;11858;51.056;3.712;2023-02-28T00:25:53;3.80;99.90
23371;DHT22;11858;51.056;3.712;2023-02-28T00:28:20;3.80;99.90
23371;DHT22;11858;51.056;3.712;2023-02-28T00:30:46;3.70;99.90
23371;DHT22;11858;51.056;3.712;2023-02-28T00:33:12;3.80;99.90
23371;DHT22;11858;51.056;3.712;2023-02-28T00:35:38;3.90;99.90
23371;DHT22;11858;51.056;3.712;2023-02-28T00:38:03;3.90;99.90
23371;DHT22;11858;51.056;3.712;2023-02-28T00:40:29;3.90;99.90
23371;DHT22;11858;51.056;3.712;2023-02-28T00:42:55;3.70;99.90
23371;DHT22;11858;51.056;3.712;2023-02-28T00:45:21;3.70;99.90
23371;DHT22;11858;51.056;3.712;2023-02-28T00:47:47;3.70;99.90
23371;DHT22;11858;51.056;3.712;2023-02-28T00:50:17;3.70;99.90
23371;DHT22;11858;51.056;3.712;2023-02-28T00:52:43;3.70;99.90
23371;DHT22;11858;51.056;3.712;2023-02-28T00:55:09;3.80;99.90
23371;DHT22;11858;51.056;3.712;2023-02-28T00:57:35;3.80;99.90
23371;DHT22;11858;51.056;3.712;2023-02-28T01:00:01;3.80;99.90
23371;DHT22;11858;51.056;3.712;2023-02-28T01:02:27;3.80;99.90
23371;DHT22;11858;51.056;3.712;2023-02-28T01:04:52;3.70;99.90
23371;DHT22;11858;51.056;3.712;2023-02-28T01:07:19;3.70;99.90
23371;DHT22;11858;51.056;3.712;2023-02-28T01:09:44;3.80;99.90
23371;DHT22;11858;51.056;3.712;2023-02-28T01:12:10;3.70;99.90
23371;DHT22;11858;51.056;3.712;2023-02-28T01:14:36;3.60;99.90
23371;DHT22;11858;51.056;3.712;2023-02-28T01:17:03;3.60;99.90
23371;DHT22;11858;51.056;3.712;2023-02-28T01:19:28;3.70;99.90
23371;DHT22;11858;51.056;3.712;2023-02-28T01:21:54;3.60;99.90
23371;DHT22;11858;51.056;3.712;2023-02-28T01:24:20;3.50;99.90
23371;DHT22;11858;51.056;3.712;2023-02-28T01:26:45;3.50;99.90
23371;DHT22;11858;51.056;3.712;2023-02-28T01:29:11;3.60;99.90
23371;DHT22;11858;51.056;3.712;2023-02-28T01:31:37;3.70;99.90
23371;DHT22;11858;51.056;3.712;2023-02-28T01:34:03;3.60;99.90
23371;DHT22;11858;51.056;3.712;2023-02-28T01:36:29;3.80;99.90
23371;DHT22;11858;51.056;3.712;2023-02-28T01:38:55;3.70;99.90
23371;DHT22;11858;51.056;3.712;2023-02-28T01:41:23;3.50;99.90
23371;DHT22;11858;51.056;3.712;2023-02-28T01:46:15;3.40;99.90
23371;DHT22;11858;51.056;3.712;2023-02-28T01:49:19;3.30;99.90
23371;DHT22;11858;51.056;3.712;2023-02-28T01:51:48;3.40;99.90
23371;DHT22;11858;51.056;3.712;2023-02-28T01:54:22;3.30;99.90
23371;DHT22;11858;51.056;3.712;2023-02-28T01:56:54;3.40;99.90
23371;DHT22;11858;51.056;3.712;2023-02-28T01:59:51;3.50;99.90
23371;DHT22;11858;51.056;3.712;2023-02-28T02:02:22;3.30;99.90
23371;DHT22;11858;51.056;3.712;2023-02-28T02:04:55;3.30;99.90
23371;DHT22;11858;51.056;3.712;2023-02-28T02:07:23;3.40;99.90
23371;DHT22;11858;51.056;3.712;2023-02-28T02:09:56;3.50;99.90
23371;DHT22;11858;51.056;3.712;2023-02-28T02:12:27;3.40;99.90
23371;DHT22;11858;51.056;3.712;2023-02-28T02:15:16;3.30;99.90
23371;DHT22;11858;51.056;3.712;2023-02-28T02:17:46;3.20;99.90
23371;DHT22;11858;51.056;3.712;2023-02-28T02:23:26;3.00;99.90
23371;DHT22;11858;51.056;3.712;2023-02-28T02:25:56;3.10;99.90
23371;DHT22;11858;51.056;3.712;2023-02-28T02:40:03;3.20;99.90
23371;DHT22;11858;51.056;3.712;2023-02-28T02:45:17;3.00;99.90
23371;DHT22;11858;51.056;3.712;2023-02-28T02:47:45;3.10;99.90
23371;DHT22;11858;51.056;3.712;2023-02-28T02:50:15;3.00;99.90
23371;DHT22;11858;51.056;3.712;2023-02-28T02:52:47;3.00;99.90
23371;DHT22;11858;51.056;3.712;2023-02-28T02:55:17;2.90;99.90
23371;DHT22;11858;51.056;3.712;2023-02-28T02:57:56;2.80;99.90
23371;DHT22;11858;51.056;3.712;2023-02-28T03:00:29;2.70;99.90
23371;DHT22;11858;51.056;3.712;2023-02-28T03:02:56;2.70;99.90
23371;DHT22;11858;51.056;3.712;2023-02-28T03:05:30;2.70;99.90
23371;DHT22;11858;51.056;3.712;2023-02-28T03:07:59;2.80;99.90
23371;DHT22;11858;51.056;3.712;2023-02-28T03:10:51;2.70;99.90
23371;DHT22;11858;51.056;3.712;2023-02-28T03:13:43;2.80;99.90
23371;DHT22;11858;51.056;3.712;2023-02-28T03:22:19;2.60;99.90
23371;DHT22;11858;51.056;3.712;2023-02-28T03:27:24;2.70;99.90
23371;DHT22;11858;51.056;3.712;2023-02-28T03:30:03;2.60;99.90
23371;DHT22;11858;51.056;3.712;2023-02-28T03:32:42;2.50;99.90
23371;DHT22;11858;51.056;3.712;2023-02-28T03:35:20;2.60;99.90
23371;DHT22;11858;51.056;3.712;2023-02-28T03:37:53;2.50;99.90
23371;DHT22;11858;51.056;3.712;2023-02-28T03:40:25;2.40;99.90
23371;DHT22;11858;51.056;3.712;2023-02-28T03:42:56;2.30;99.90
23371;DHT22;11858;51.056;3.712;2023-02-28T03:45:26;2.40;99.90
23371;DHT22;11858;51.056;3.712;2023-02-28T03:48:02;2.60;99.90
23371;DHT22;11858;51.056;3.712;2023-02-28T03:50:39;2.60;99.90
23371;DHT22;11858;51.056;3.712;2023-02-28T03:56:07;2.70;99.90
23371;DHT22;11858;51.056;3.712;2023-02-28T03:59:07;2.70;99.90
23371;DHT22;11858;51.056;3.712;2023-02-28T04:01:40;2.70;99.90
23371;DHT22;11858;51.056;3.712;2023-02-28T04:04:08;2.90;99.90
23371;DHT22;11858;51.056;3.712;2023-02-28T04:06:34;2.90;99.90
23371;DHT22;11858;51.056;3.712;2023-02-28T04:09:00;3.00;99.90
23371;DHT22;11858;51.056;3.712;2023-02-28T04:11:39;3.00;99.90
23371;DHT22;11858;51.056;3.712;2023-02-28T04:14:07;3.20;99.90
23371;DHT22;11858;51.056;3.712;2023-02-28T04:16:35;3.20;99.90
23371;DHT22;11858;51.056;3.712;2023-02-28T04:19:02;3.20;99.90
23371;DHT22;11858;51.056;3.712;2023-02-28T04:21:33;3.20;99.90
23371;DHT22;11858;51.056;3.712;2023-02-28T04:23:59;3.20;99.90
23371;DHT22;11858;51.056;3.712;2023-02-28T04:26:47;3.20;99.90
23371;DHT22;11858;51.056;3.712;2023-02-28T04:29:14;3.20;99.90
23371;DHT22;11858;51.056;3.712;2023-02-28T04:31:43;3.30;99.90
23371;DHT22;11858;51.056;3.712;2023-02-28T04:34:08;3.30;99.90
23371;DHT22;11858;51.056;3.712;2023-02-28T04:36:34;3.30;99.90
23371;DHT22;11858;51.056;3.712;2023-02-28T04:39:00;3.40;99.90
23371;DHT22;11858;51.056;3.712;2023-02-28T04:41:25;3.40;99.90
23371;DHT22;11858;51.056;3.712;2023-02-28T04:43:52;3.40;99.90
23371;DHT22;11858;51.056;3.712;2023-02-28T04:46:18;3.50;99.90
23371;DHT22;11858;51.056;3.712;2023-02-28T04:48:44;3.50;99.90
23371;DHT22;11858;51.056;3.712;2023-02-28T04:51:13;3.50;99.90
23371;DHT22;11858;51.056;3.712;2023-02-28T04:53:40;3.70;99.90
23371;DHT22;11858;51.056;3.712;2023-02-28T04:56:07;3.70;99.90
23371;DHT22;11858;51.056;3.712;2023-02-28T04:58:33;3.70;99.90
23371;DHT22;11858;51.056;3.712;2023-02-28T05:03:51;3.80;99.90
23371;DHT22;11858;51.056;3.712;2023-02-28T05:06:18;3.70;99.90
23371;DHT22;11858;51.056;3.712;2023-02-28T05:08:45;3.70;99.90
23371;DHT22;11858;51.056;3.712;2023-02-28T05:11:20;3.80;99.90
23371;DHT22;11858;51.056;3.712;2023-02-28T05:13:46;3.90;99.90
23371;DHT22;11858;51.056;3.712;2023-02-28T05:16:13;3.90;99.90
23371;DHT22;11858;51.056;3.712;2023-02-28T05:18:39;4.00;99.90
23371;DHT22;11858;51.056;3.712;2023-02-28T05:21:05;3.90;99.90
23371;DHT22;11858;51.056;3.712;2023-02-28T05:23:32;4.00;99.90
23371;DHT22;11858;51.056;3.712;2023-02-28T05:25:58;4.00;99.90
23371;DHT22;11858;51.056;3.712;2023-02-28T05:28:23;4.10;99.90
23371;DHT22;11858;51.056;3.712;2023-02-28T05:30:49;4.10;99.90
23371;DHT22;11858;51.056;3.712;2023-02-28T05:33:15;4.00;99.90
23371;DHT22;11858;51.056;3.712;2023-02-28T05:35:41;4.00;99.90
23371;DHT22;11858;51.056;3.712;2023-02-28T05:38:08;4.00;99.90
23371;DHT22;11858;51.056;3.712;2023-02-28T05:40:34;4.00;99.90
23371;DHT22;11858;51.056;3.712;2023-02-28T05:43:00;4.00;99.90
23371;DHT22;11858;51.056;3.712;2023-02-28T05:45:26;4.00;99.90
23371;DHT22;11858;51.056;3.712;2023-02-28T05:47:55;4.00;99.90
23371;DHT22;11858;51.056;3.712;2023-02-28T05:50:21;4.00;99.90
23371;DHT22;11858;51.056;3.712;2023-02-28T05:52:51;3.90;99.90
23371;DHT22;11858;51.056;3.712;2023-02-28T05:55:17;3.90;99.90
23371;DHT22;11858;51.056;3.712;2023-02-28T05:57:44;4.00;99.90
23371;DHT22;11858;51.056;3.712;2023-02-28T06:00:10;4.00;99.90
23371;DHT22;11858;51.056;3.712;2023-02-28T06:02:36;4.10;99.90
23371;DHT22;11858;51.056;3.712;2023-02-28T06:05:03;4.20;99.90
23371;DHT22;11858;51.056;3.712;2023-02-28T06:07:29;4.20;99.90
23371;DHT22;11858;51.056;3.712;2023-02-28T06:09:56;4.10;99.90
23371;DHT22;11858;51.056;3.712;2023-02-28T06:12:22;4.10;99.90
23371;DHT22;11858;51.056;3.712;2023-02-28T06:14:48;4.30;99.90
23371;DHT22;11858;51.056;3.712;2023-02-28T06:17:13;4.30;99.90
23371;DHT22;11858;51.056;3.712;2023-02-28T06:19:39;4.20;99.90
23371;DHT22;11858;51.056;3.712;2023-02-28T06:22:06;4.10;99.90
23371;DHT22;11858;51.056;3.712;2023-02-28T06:24:32;4.10;99.90
23371;DHT22;11858;51.056;3.712;2023-02-28T06:26:58;4.30;99.90
23371;DHT22;11858;51.056;3.712;2023-02-28T06:29:32;4.30;99.90
23371;DHT22;11858;51.056;3.712;2023-02-28T06:31:58;4.20;99.90
23371;DHT22;11858;51.056;3.712;2023-02-28T06:34:23;4.10;99.90
23371;DHT22;11858;51.056;3.712;2023-02-28T06:36:50;4.10;99.90
23371;DHT22;11858;51.056;3.712;2023-02-28T06:39:16;4.00;99.90
23371;DHT22;11858;51.056;3.712;2023-02-28T06:41:42;4.10;99.90
23371;DHT22;11858;51.056;3.712;2023-02-28T06:44:13;4.00;99.90
23371;DHT22;11858;51.056;3.712;2023-02-28T06:46:41;4.30;99.90
23371;DHT22;11858;51.056;3.712;2023-02-28T06:49:07;4.30;99.90
23371;DHT22;11858;51.056;3.712;2023-02-28T06:51:37;4.30;99.90
23371;DHT22;11858;51.056;3.712;2023-02-28T06:54:05;4.20;99.90
23371;DHT22;11858;51.056;3.712;2023-02-28T06:56:31;4.20;99.90
23371;DHT22;11858;51.056;3.712;2023-02-28T06:58:56;4.20;99.90
23371;DHT22;11858;51.056;3.712;2023-02-28T07:01:22;4.30;99.90
23371;DHT22;11858;51.056;3.712;2023-02-28T07:03:50;4.40;99.90
23371;DHT22;11858;51.056;3.712;2023-02-28T07:06:18;4.40;99.90
23371;DHT22;11858;51.056;3.712;2023-02-28T07:08:45;4.40;99.90
23371;DHT22;11858;51.056;3.712;2023-02-28T07:11:11;4.60;99.90
23371;DHT22;11858;51.056;3.712;2023-02-28T07:13:36;4.70;99.90
23371;DHT22;11858;51.056;3.712;2023-02-28T07:16:07;4.70;99.90
23371;DHT22;11858;51.056;3.712;2023-02-28T07:18:34;4.70;99.90
23371;DHT22;11858;51.056;3.712;2023-02-28T07:21:05;4.70;99.90
23371;DHT22;11858;51.056;3.712;2023-02-28T07:23:32;4.70;99.90
23371;DHT22;11858;51.056;3.712;2023-02-28T07:25:58;4.70;99.90
23371;DHT22;11858;51.056;3.712;2023-02-28T07:28:24;4.70;99.90
23371;DHT22;11858;51.056;3.712;2023-02-28T07:30:50;4.70;99.90
23371;DHT22;11858;51.056;3.712;2023-02-28T07:33:16;4.60;99.90
23371;DHT22;11858;51.056;3.712;2023-02-28T07:35:43;4.70;99.90
23371;DHT22;11858;51.056;3.712;2023-02-28T07:38:08;4.80;99.90
23371;DHT22;11858;51.056;3.712;2023-02-28T07:40:35;4.70;99.90
23371;DHT22;11858;51.056;3.712;2023-02-28T07:43:02;4.60;99.90
23371;DHT22;11858;51.056;3.712;2023-02-28T07:45:29;4.60;99.90
23371;DHT22;11858;51.056;3.712;2023-02-28T07:47:55;4.70;99.90
23371;DHT22;11858;51.056;3.712;2023-02-28T07:50:21;4.80;99.90
23371;DHT22;11858;51.056;3.712;2023-02-28T07:52:47;5.00;99.90
23371;DHT22;11858;51.056;3.712;2023-02-28T07:55:13;5.10;99.90
23371;DHT22;11858;51.056;3.712;2023-02-28T07:57:40;5.00;99.90
23371;DHT22;11858;51.056;3.712;2023-02-28T08:00:08;5.00;99.90
23371;DHT22;11858;51.056;3.712;2023-02-28T08:02:38;5.00;99.90
23371;DHT22;11858;51.056;3.712;2023-02-28T08:05:05;5.00;99.90
23371;DHT22;11858;51.056;3.712;2023-02-28T08:07:30;5.30;99.90
23371;DHT22;11858;51.056;3.712;2023-02-28T08:09:56;5.30;99.90
23371;DHT22;11858;51.056;3.712;2023-02-28T08:12:22;5.50;99.90
23371;DHT22;11858;51.056;3.712;2023-02-28T08:14:48;5.40;99.90
23371;DHT22;11858;51.056;3.712;2023-02-28T08:17:13;5.70;99.90
23371;DHT22;11858;51.056;3.712;2023-02-28T08:19:39;6.10;99.90
23371;DHT22;11858;51.056;3.712;2023-02-28T08:22:05;6.30;99.90
23371;DHT22;11858;51.056;3.712;2023-02-28T08:24:31;6.30;99.90
23371;DHT22;11858;51.056;3.712;2023-02-28T08:26:57;6.30;99.90
23371;DHT22;11858;51.056;3.712;2023-02-28T08:29:23;6.30;99.90
23371;DHT22;11858;51.056;3.712;2023-02-28T08:31:49;6.50;99.90
23371;DHT22;11858;51.056;3.712;2023-02-28T08:34:15;6.60;99.90
23371;DHT22;11858;51.056;3.712;2023-02-28T08:36:42;6.70;99.90
23371;DHT22;11858;51.056;3.712;2023-02-28T08:39:12;6.70;99.90
23371;DHT22;11858;51.056;3.712;2023-02-28T08:41:38;6.70;99.90
23371;DHT22;11858;51.056;3.712;2023-02-28T08:44:04;6.50;99.90
23371;DHT22;11858;51.056;3.712;2023-02-28T08:46:30;6.50;99.90
23371;DHT22;11858;51.056;3.712;2023-02-28T08:48:56;6.40;99.90
23371;DHT22;11858;51.056;3.712;2023-02-28T08:51:26;6.20;99.90
23371;DHT22;11858;51.056;3.712;2023-02-28T08:53:54;6.10;99.90
23371;DHT22;11858;51.056;3.712;2023-02-28T08:56:21;6.20;99.90
23371;DHT22;11858;51.056;3.712;2023-02-28T08:58:49;6.10;99.90
23371;DHT22;11858;51.056;3.712;2023-02-28T09:01:20;6.10;99.90
23371;DHT22;11858;51.056;3.712;2023-02-28T09:03:48;6.10;99.90
23371;DHT22;11858;51.056;3.712;2023-02-28T09:06:15;6.10;99.90
23371;DHT22;11858;51.056;3.712;2023-02-28T09:08:41;6.00;99.90
23371;DHT22;11858;51.056;3.712;2023-02-28T09:11:07;6.10;99.90
23371;DHT22;11858;51.056;3.712;2023-02-28T09:13:33;6.00;99.90
23371;DHT22;11858;51.056;3.712;2023-02-28T09:16:01;5.80;99.90
23371;DHT22;11858;51.056;3.712;2023-02-28T09:18:27;5.90;99.90
23371;DHT22;11858;51.056;3.712;2023-02-28T09:20:53;5.80;99.90
23371;DHT22;11858;51.056;3.712;2023-02-28T09:23:19;5.80;99.90
23371;DHT22;11858;51.056;3.712;2023-02-28T09:25:50;5.80;99.90
23371;DHT22;11858;51.056;3.712;2023-02-28T09:28:17;5.80;99.90
23371;DHT22;11858;51.056;3.712;2023-02-28T09:30:48;5.90;99.90
23371;DHT22;11858;51.056;3.712;2023-02-28T09:33:15;6.00;99.90
23371;DHT22;11858;51.056;3.712;2023-02-28T09:35:42;6.00;99.90
23371;DHT22;11858;51.056;3.712;2023-02-28T09:38:09;6.10;99.90
23371;DHT22;11858;51.056;3.712;2023-02-28T09:40:38;6.10;99.90
23371;DHT22;11858;51.056;3.712;2023-02-28T09:43:05;6.20;99.90
23371;DHT22;11858;51.056;3.712;2023-02-28T09:45:40;6.10;99.90
23371;DHT22;11858;51.056;3.712;2023-02-28T09:48:12;6.10;99.90
23371;DHT22;11858;51.056;3.712;2023-02-28T09:50:48;6.10;99.90
23371;DHT22;11858;51.056;3.712;2023-02-28T09:53:22;6.00;99.90
23371;DHT22;11858;51.056;3.712;2023-02-28T09:55:57;5.90;99.90
23371;DHT22;11858;51.056;3.712;2023-02-28T09:58:40;5.90;99.90
23371;DHT22;11858;51.056;3.712;2023-02-28T10:04:00;6.00;99.90
23371;DHT22;11858;51.056;3.712;2023-02-28T10:06:33;6.00;99.90
23371;DHT22;11858;51.056;3.712;2023-02-28T10:09:04;5.90;99.90
23371;DHT22;11858;51.056;3.712;2023-02-28T10:11:33;6.10;99.90
23371;DHT22;11858;51.056;3.712;2023-02-28T10:22:13;6.40;99.90
23371;DHT22;11858;51.056;3.712;2023-02-28T10:24:48;6.30;99.90
23371;DHT22;11858;51.056;3.712;2023-02-28T10:27:16;6.30;99.90
23371;DHT22;11858;51.056;3.712;2023-02-28T10:29:51;6.40;99.90
23371;DHT22;11858;51.056;3.712;2023-02-28T10:32:20;6.50;99.90
23371;DHT22;11858;51.056;3.712;2023-02-28T10:37:40;6.80;99.90
23371;DHT22;11858;51.056;3.712;2023-02-28T10:40:08;7.00;99.90
23371;DHT22;11858;51.056;3.712;2023-02-28T10:45:33;7.40;99.90
23371;DHT22;11858;51.056;3.712;2023-02-28T10:50:55;7.60;99.90
23371;DHT22;11858;51.056;3.712;2023-02-28T10:58:26;8.00;99.90
23371;DHT22;11858;51.056;3.712;2023-02-28T11:00:52;8.50;99.90
23371;DHT22;11858;51.056;3.712;2023-02-28T11:03:34;9.20;99.90
23371;DHT22;11858;51.056;3.712;2023-02-28T11:06:06;10.70;99.90
23371;DHT22;11858;51.056;3.712;2023-02-28T11:08:33;12.60;99.90
23371;DHT22;11858;51.056;3.712;2023-02-28T11:11:04;13.60;99.90
23371;DHT22;11858;51.056;3.712;2023-02-28T11:13:36;15.00;96.00
23371;DHT22;11858;51.056;3.712;2023-02-28T11:16:09;16.30;90.80
23371;DHT22;11858;51.056;3.712;2023-02-28T11:18:48;15.80;82.80
23371;DHT22;11858;51.056;3.712;2023-02-28T11:21:35;15.80;80.20
23371;DHT22;11858;51.056;3.712;2023-02-28T11:24:28;15.40;80.20
23371;DHT22;11858;51.056;3.712;2023-02-28T11:26:55;15.10;78.30
23371;DHT22;11858;51.056;3.712;2023-02-28T11:29:32;15.70;80.30
23371;DHT22;11858;51.056;3.712;2023-02-28T11:32:20;15.90;77.70
23371;DHT22;11858;51.056;3.712;2023-02-28T11:34:59;16.30;77.00
23371;DHT22;11858;51.056;3.712;2023-02-28T11:37:27;16.50;75.90
23371;DHT22;11858;51.056;3.712;2023-02-28T11:39:54;16.60;73.80
23371;DHT22;11858;51.056;3.712;2023-02-28T11:42:35;17.20;73.70
23371;DHT22;11858;51.056;3.712;2023-02-28T11:45:39;16.40;70.40
23371;DHT22;11858;51.056;3.712;2023-02-28T11:50:58;17.80;69.60
23371;DHT22;11858;51.056;3.712;2023-02-28T11:56:41;18.50;63.60
23371;DHT22;11858;51.056;3.712;2023-02-28T12:10:22;19.50;59.70
23371;DHT22;11858;51.056;3.712;2023-02-28T12:16:06;19.30;56.50
23371;DHT22;11858;51.056;3.712;2023-02-28T12:21:21;19.20;55.10
23371;DHT22;11858;51.056;3.712;2023-02-28T12:26:34;19.90;53.80
23371;DHT22;11858;51.056;3.712;2023-02-28T12:32:30;19.70;53.90
23371;DHT22;11858;51.056;3.712;2023-02-28T12:37:43;19.40;53.80
23371;DHT22;11858;51.056;3.712;2023-02-28T12:40:13;18.90;52.20
23371;DHT22;11858;51.056;3.712;2023-02-28T12:42:44;18.60;51.80
23371;DHT22;11858;51.056;3.712;2023-02-28T12:45:20;19.20;52.00
23371;DHT22;11858;51.056;3.712;2023-02-28T12:47:52;19.00;50.00
23371;DHT22;11858;51.056;3.712;2023-02-28T12:50:21;19.20;51.30
23371;DHT22;11858;51.056;3.712;2023-02-28T12:52:55;19.20;49.90
23371;DHT22;11858;51.056;3.712;2023-02-28T13:09:38;19.30;47.40
23371;DHT22;11858;51.056;3.712;2023-02-28T13:12:14;19.60;47.10
23371;DHT22;11858;51.056;3.712;2023-02-28T13:14:40;20.20;46.50
23371;DHT22;11858;51.056;3.712;2023-02-28T13:17:10;20.20;45.10
23371;DHT22;11858;51.056;3.712;2023-02-28T13:24:55;19.90;45.10
23371;DHT22;11858;51.056;3.712;2023-02-28T13:29:51;20.40;46.10
23371;DHT22;11858;51.056;3.712;2023-02-28T13:32:35;20.30;45.00
23371;DHT22;11858;51.056;3.712;2023-02-28T13:37:32;19.70;44.70
23371;DHT22;11858;51.056;3.712;2023-02-28T13:47:41;19.50;44.40
23371;DHT22;11858;51.056;3.712;2023-02-28T13:50:27;19.80;44.70
23371;DHT22;11858;51.056;3.712;2023-02-28T13:56:01;20.60;44.50
23371;DHT22;11858;51.056;3.712;2023-02-28T14:01:31;20.00;44.10
23371;DHT22;11858;51.056;3.712;2023-02-28T14:06:58;19.70;44.90
23371;DHT22;11858;51.056;3.712;2023-02-28T14:11:53;19.60;43.70
23371;DHT22;11858;51.056;3.712;2023-02-28T14:17:17;20.00;43.40
23371;DHT22;11858;51.056;3.712;2023-02-28T14:19:47;20.20;43.10
23371;DHT22;11858;51.056;3.712;2023-02-28T14:28:50;20.00;43.20
23371;DHT22;11858;51.056;3.712;2023-02-28T14:31:28;19.90;43.60
23371;DHT22;11858;51.056;3.712;2023-02-28T14:36:47;20.70;43.80
23371;DHT22;11858;51.056;3.712;2023-02-28T14:39:20;20.30;43.20
23371;DHT22;11858;51.056;3.712;2023-02-28T14:41:47;20.10;42.70
23371;DHT22;11858;51.056;3.712;2023-02-28T14:44:26;19.60;43.70
23371;DHT22;11858;51.056;3.712;2023-02-28T14:47:01;20.40;43.40
23371;DHT22;11858;51.056;3.712;2023-02-28T14:49:51;19.60;43.00
23371;DHT22;11858;51.056;3.712;2023-02-28T14:52:32;19.00;43.50
23371;DHT22;11858;51.056;3.712;2023-02-28T14:55:10;19.10;43.90
23371;DHT22;11858;51.056;3.712;2023-02-28T14:57:57;19.80;43.60
23371;DHT22;11858;51.056;3.712;2023-02-28T15:00:29;19.00;43.60
23371;DHT22;11858;51.056;3.712;2023-02-28T15:02:56;19.40;44.80
23371;DHT22;11858;51.056;3.712;2023-02-28T15:05:28;19.10;44.50
23371;DHT22;11858;51.056;3.712;2023-02-28T15:08:27;18.50;43.80
23371;DHT22;11858;51.056;3.712;2023-02-28T15:11:01;19.10;44.50
23371;DHT22;11858;51.056;3.712;2023-02-28T15:16:16;18.90;44.80
23371;DHT22;11858;51.056;3.712;2023-02-28T15:18:53;18.90;44.30
23371;DHT22;11858;51.056;3.712;2023-02-28T15:26:28;18.40;45.30
23371;DHT22;11858;51.056;3.712;2023-02-28T15:29:05;18.60;45.00
23371;DHT22;11858;51.056;3.712;2023-02-28T15:31:41;18.00;45.40
23371;DHT22;11858;51.056;3.712;2023-02-28T15:34:37;18.20;45.20
23371;DHT22;11858;51.056;3.712;2023-02-28T15:43:04;18.40;45.40
23371;DHT22;11858;51.056;3.712;2023-02-28T15:45:38;18.20;46.00
23371;DHT22;11858;51.056;3.712;2023-02-28T15:48:20;17.80;47.40
23371;DHT22;11858;51.056;3.712;2023-02-28T15:50:52;17.60;46.80
23371;DHT22;11858;51.056;3.712;2023-02-28T15:53:25;17.50;46.50
23371;DHT22;11858;51.056;3.712;2023-02-28T15:55:55;17.30;47.20
23371;DHT22;11858;51.056;3.712;2023-02-28T15:58:22;17.20;47.30
23371;DHT22;11858;51.056;3.712;2023-02-28T16:01:01;17.20;47.00
23371;DHT22;11858;51.056;3.712;2023-02-28T16:03:42;17.40;47.40
23371;DHT22;11858;51.056;3.712;2023-02-28T16:06:32;17.10;47.40
23371;DHT22;11858;51.056;3.712;2023-02-28T16:08:57;16.60;47.60
23371;DHT22;11858;51.056;3.712;2023-02-28T16:11:23;16.40;48.60
23371;DHT22;11858;51.056;3.712;2023-02-28T16:13:50;15.60;49.00
23371;DHT22;11858;51.056;3.712;2023-02-28T16:16:22;14.70;49.90
23371;DHT22;11858;51.056;3.712;2023-02-28T16:18:49;13.70;50.90
23371;DHT22;11858;51.056;3.712;2023-02-28T16:21:14;12.80;52.60
23371;DHT22;11858;51.056;3.712;2023-02-28T16:23:40;12.50;54.20
23371;DHT22;11858;51.056;3.712;2023-02-28T16:26:07;12.00;54.60
23371;DHT22;11858;51.056;3.712;2023-02-28T16:28:36;12.00;55.50
23371;DHT22;11858;51.056;3.712;2023-02-28T16:31:06;11.40;55.90
23371;DHT22;11858;51.056;3.712;2023-02-28T16:33:33;11.30;56.30
23371;DHT22;11858;51.056;3.712;2023-02-28T16:36:00;10.80;56.90
23371;DHT22;11858;51.056;3.712;2023-02-28T16:38:26;10.70;57.60
23371;DHT22;11858;51.056;3.712;2023-02-28T16:40:53;10.30;58.10
23371;DHT22;11858;51.056;3.712;2023-02-28T16:43:23;10.00;59.10
23371;DHT22;11858;51.056;3.712;2023-02-28T16:45:55;10.00;59.00
23371;DHT22;11858;51.056;3.712;2023-02-28T16:48:22;9.80;59.30
23371;DHT22;11858;51.056;3.712;2023-02-28T16:50:49;9.70;59.40
23371;DHT22;11858;51.056;3.712;2023-02-28T16:53:14;9.60;60.20
23371;DHT22;11858;51.056;3.712;2023-02-28T16:55:40;9.50;60.60
23371;DHT22;11858;51.056;3.712;2023-02-28T16:58:10;9.30;61.00
23371;DHT22;11858;51.056;3.712;2023-02-28T17:00:37;9.30;61.60
23371;DHT22;11858;51.056;3.712;2023-02-28T17:03:03;9.20;61.50
23371;DHT22;11858;51.056;3.712;2023-02-28T17:05:34;9.10;61.70
23371;DHT22;11858;51.056;3.712;2023-02-28T17:08:02;9.00;62.30
23371;DHT22;11858;51.056;3.712;2023-02-28T17:10:29;8.70;63.30
23371;DHT22;11858;51.056;3.712;2023-02-28T17:12:54;8.70;64.60
23371;DHT22;11858;51.056;3.712;2023-02-28T17:15:20;8.60;64.10
23371;DHT22;11858;51.056;3.712;2023-02-28T17:17:47;8.40;64.90
23371;DHT22;11858;51.056;3.712;2023-02-28T17:20:22;8.20;65.20
23371;DHT22;11858;51.056;3.712;2023-02-28T17:22:51;8.20;65.80
23371;DHT22;11858;51.056;3.712;2023-02-28T17:25:16;8.20;66.00
23371;DHT22;11858;51.056;3.712;2023-02-28T17:27:43;8.30;66.20
23371;DHT22;11858;51.056;3.712;2023-02-28T17:30:18;8.10;66.80
23371;DHT22;11858;51.056;3.712;2023-02-28T17:32:44;8.00;67.40
23371;DHT22;11858;51.056;3.712;2023-02-28T17:35:10;8.00;67.80
23371;DHT22;11858;51.056;3.712;2023-02-28T17:37:36;7.90;68.10
23371;DHT22;11858;51.056;3.712;2023-02-28T17:40:02;7.80;68.60
23371;DHT22;11858;51.056;3.712;2023-02-28T17:42:28;7.70;68.90
23371;DHT22;11858;51.056;3.712;2023-02-28T17:44:54;7.60;69.80
23371;DHT22;11858;51.056;3.712;2023-02-28T17:47:20;7.50;70.00
23371;DHT22;11858;51.056;3.712;2023-02-28T17:49:45;7.60;70.40
23371;DHT22;11858;51.056;3.712;2023-02-28T17:52:11;7.40;71.10
23371;DHT22;11858;51.056;3.712;2023-02-28T17:54:37;7.50;71.90
23371;DHT22;11858;51.056;3.712;2023-02-28T17:57:02;7.40;71.80
23371;DHT22;11858;51.056;3.712;2023-02-28T17:59:28;7.50;72.40
23371;DHT22;11858;51.056;3.712;2023-02-28T18:02:01;7.30;72.90
23371;DHT22;11858;51.056;3.712;2023-02-28T18:04:27;7.30;73.70
23371;DHT22;11858;51.056;3.712;2023-02-28T18:06:53;7.40;74.20
23371;DHT22;11858;51.056;3.712;2023-02-28T18:09:21;7.50;74.10
23371;DHT22;11858;51.056;3.712;2023-02-28T18:11:49;7.20;74.00
23371;DHT22;11858;51.056;3.712;2023-02-28T18:14:16;7.10;76.00
23371;DHT22;11858;51.056;3.712;2023-02-28T18:16:43;6.90;75.90
23371;DHT22;11858;51.056;3.712;2023-02-28T18:19:09;6.90;76.70
23371;DHT22;11858;51.056;3.712;2023-02-28T18:21:50;6.80;77.10
23371;DHT22;11858;51.056;3.712;2023-02-28T18:24:18;6.80;78.30
23371;DHT22;11858;51.056;3.712;2023-02-28T18:26:45;6.80;79.00
23371;DHT22;11858;51.056;3.712;2023-02-28T18:29:22;6.90;79.20
23371;DHT22;11858;51.056;3.712;2023-02-28T18:31:49;6.80;79.50
23371;DHT22;11858;51.056;3.712;2023-02-28T18:34:14;6.70;80.50
23371;DHT22;11858;51.056;3.712;2023-02-28T18:36:40;6.60;81.60
23371;DHT22;11858;51.056;3.712;2023-02-28T18:39:07;6.40;82.60